createdAt,value
2017-06-14T00:01:52.373Z,7.03
2017-06-14T00:04:20.726Z,7.20
2017-06-14T00:06:48.990Z,7.03
2017-06-14T00:09:17.284Z,7.47
2017-06-14T00:11:45.536Z,8.47
2017-06-14T00:14:13.833Z,7.37
2017-06-14T00:16:42.092Z,7.43
2017-06-14T00:19:10.398Z,7.17
2017-06-14T00:21:38.678Z,7.60
2017-06-14T00:24:06.966Z,7.37
2017-06-14T00:26:35.325Z,8.40
2017-06-14T00:29:03.704Z,7.40
2017-06-14T00:31:32.020Z,7.60
2017-06-14T00:34:01.080Z,7.43
2017-06-14T00:36:29.342Z,7.23
2017-06-14T00:38:57.615Z,7.57
2017-06-14T00:41:25.924Z,8.50
2017-06-14T00:43:54.228Z,7.90
2017-06-14T00:46:22.564Z,8.23
2017-06-14T00:48:50.944Z,8.57
2017-06-14T00:51:19.308Z,7.70
2017-06-14T00:53:47.573Z,7.87
2017-06-14T00:56:15.886Z,8.73
2017-06-14T00:58:44.154Z,7.80
2017-06-14T01:01:12.434Z,8.13
2017-06-14T01:03:40.712Z,7.50
2017-06-14T01:06:08.975Z,8.10
2017-06-14T01:08:37.367Z,8.47
2017-06-14T01:11:05.645Z,8.30
2017-06-14T01:13:34.022Z,9.40
2017-06-14T01:16:03.081Z,8.27
2017-06-14T01:18:31.341Z,8.03
2017-06-14T01:20:59.728Z,8.33
2017-06-14T01:23:27.990Z,8.10
2017-06-14T01:25:56.296Z,8.77
2017-06-14T01:28:25.386Z,8.63
2017-06-14T01:30:53.640Z,8.20
2017-06-14T01:33:21.940Z,8.07
2017-06-14T01:35:50.302Z,8.70
2017-06-14T01:38:18.578Z,8.73
2017-06-14T01:40:46.958Z,8.43
2017-06-14T01:43:15.224Z,9.47
2017-06-14T01:45:43.486Z,9.43
2017-06-14T01:48:11.789Z,8.77
2017-06-14T01:50:40.048Z,9.43
2017-06-14T01:53:08.440Z,8.63
2017-06-14T01:55:36.721Z,9.80
2017-06-14T01:58:04.997Z,10.33
2017-06-14T02:00:33.392Z,8.73
2017-06-14T02:03:01.656Z,10.10
2017-06-14T02:05:30.054Z,9.17
2017-06-14T02:07:58.416Z,9.17
2017-06-14T02:10:26.826Z,9.40
2017-06-14T02:12:55.872Z,10.00
2017-06-14T02:15:24.159Z,9.50
2017-06-14T02:17:52.444Z,8.30
2017-06-14T02:20:20.709Z,9.57
2017-06-14T02:22:48.994Z,8.67
2017-06-14T02:25:17.279Z,9.50
2017-06-14T02:27:45.650Z,10.10
2017-06-14T02:30:14.134Z,9.90
2017-06-14T02:32:42.414Z,9.97
2017-06-14T02:35:10.690Z,9.70
2017-06-14T02:37:39.067Z,9.13
2017-06-14T02:40:07.346Z,10.07
2017-06-14T02:42:35.718Z,9.57
2017-06-14T02:45:03.998Z,10.73
2017-06-14T02:47:32.269Z,10.07
2017-06-14T02:50:01.205Z,10.23
2017-06-14T02:52:29.536Z,11.37
2017-06-14T02:54:57.916Z,10.00
2017-06-14T02:57:26.305Z,9.93
2017-06-14T02:59:54.676Z,10.07
2017-06-14T03:02:22.968Z,10.13
2017-06-14T03:04:51.239Z,12.10
2017-06-14T03:07:19.612Z,10.50
2017-06-14T03:09:47.994Z,9.47
2017-06-14T03:12:16.384Z,11.03
2017-06-14T03:14:44.768Z,10.20
2017-06-14T03:17:13.852Z,11.10
2017-06-14T03:19:42.127Z,10.30
2017-06-14T03:22:10.392Z,10.87
2017-06-14T03:24:38.676Z,10.20
2017-06-14T03:27:06.964Z,10.70
2017-06-14T03:29:35.343Z,10.10
2017-06-14T03:32:03.704Z,10.30
2017-06-14T03:34:31.972Z,9.90
2017-06-14T03:37:00.257Z,9.87
2017-06-14T03:39:28.525Z,10.40
2017-06-14T03:41:56.914Z,10.10
2017-06-14T03:44:25.192Z,9.67
2017-06-14T03:46:53.486Z,9.57
2017-06-14T03:49:21.781Z,10.20
2017-06-14T03:51:50.808Z,9.87
2017-06-14T03:54:19.150Z,9.50
2017-06-14T03:56:48.186Z,9.60
2017-06-14T03:59:16.467Z,11.07
2017-06-14T04:01:44.749Z,10.17
2017-06-14T04:04:13.156Z,9.37
2017-06-14T04:06:41.525Z,9.23
2017-06-14T04:09:09.822Z,9.40
2017-06-14T04:11:38.201Z,10.77
2017-06-14T04:14:07.408Z,9.70
2017-06-14T04:16:35.685Z,10.20
2017-06-14T04:19:04.735Z,9.87
2017-06-14T04:21:33.012Z,9.43
2017-06-14T04:24:01.313Z,10.50
2017-06-14T04:26:29.580Z,9.83
2017-06-14T04:28:57.986Z,10.57
2017-06-14T04:31:26.354Z,10.67
2017-06-14T04:33:54.732Z,10.97
2017-06-14T04:36:23.159Z,9.40
2017-06-14T04:38:51.432Z,9.87
2017-06-14T04:41:19.763Z,10.07
2017-06-14T04:43:48.046Z,9.20
2017-06-14T04:46:16.345Z,11.17
2017-06-14T04:48:45.409Z,9.73
2017-06-14T04:51:13.680Z,9.80
2017-06-14T04:53:42.086Z,10.57
2017-06-14T04:56:10.360Z,9.57
2017-06-14T04:58:38.629Z,9.97
2017-06-14T05:01:06.916Z,9.87
2017-06-14T05:03:35.306Z,10.43
2017-06-14T05:06:04.502Z,9.53
2017-06-14T05:08:33.589Z,9.07
2017-06-14T05:11:01.953Z,8.90
2017-06-14T05:13:30.279Z,11.17
2017-06-14T05:15:58.617Z,8.23
2017-06-14T05:18:26.876Z,9.50
2017-06-14T05:20:55.151Z,8.83
2017-06-14T05:23:24.266Z,7.37
2017-06-14T05:25:52.565Z,8.70
2017-06-14T05:28:20.978Z,8.50
2017-06-14T05:30:49.358Z,8.50
2017-06-14T05:33:17.652Z,8.80
2017-06-14T05:35:45.976Z,8.67
2017-06-14T05:38:14.392Z,8.10
2017-06-14T05:40:42.770Z,9.03
2017-06-14T05:43:11.050Z,8.60
2017-06-14T05:45:39.334Z,8.90
2017-06-14T05:48:07.608Z,9.03
2017-06-14T05:50:35.996Z,8.27
2017-06-14T05:53:04.278Z,8.00
2017-06-14T05:55:32.555Z,8.83
2017-06-14T05:58:00.817Z,8.37
2017-06-14T06:00:29.097Z,7.97
2017-06-14T06:02:57.386Z,9.40
2017-06-14T06:05:25.682Z,8.03
2017-06-14T06:07:53.965Z,10.10
2017-06-14T06:10:22.274Z,9.23
2017-06-14T06:12:50.539Z,8.27
2017-06-14T06:15:18.960Z,7.97
2017-06-14T06:17:47.241Z,8.80
2017-06-14T06:20:15.654Z,8.00
2017-06-14T06:22:44.815Z,8.20
2017-06-14T06:25:13.189Z,7.00
2017-06-14T06:27:41.455Z,7.30
2017-06-14T06:30:09.749Z,7.40
2017-06-14T06:32:38.024Z,6.90
2017-06-14T06:35:06.338Z,7.23
2017-06-14T06:37:34.631Z,7.90
2017-06-14T06:40:03.454Z,8.03
2017-06-14T06:42:31.800Z,7.43
2017-06-14T06:45:00.070Z,6.40
2017-06-14T06:47:29.116Z,6.50
2017-06-14T06:49:57.378Z,6.00
2017-06-14T06:52:25.707Z,6.40
2017-06-14T06:54:53.963Z,6.77
2017-06-14T06:57:22.260Z,6.80
2017-06-14T06:59:50.537Z,6.50
2017-06-14T07:02:18.806Z,6.00
2017-06-14T07:04:47.128Z,7.23
2017-06-14T07:07:15.411Z,6.90
2017-06-14T07:09:43.887Z,7.87
2017-06-14T07:12:12.223Z,6.73
2017-06-14T07:14:40.510Z,8.00
2017-06-14T07:17:08.828Z,7.93
2017-06-14T07:19:37.146Z,8.13
2017-06-14T07:22:05.538Z,7.70
2017-06-14T07:24:33.804Z,8.10
2017-06-14T07:27:02.091Z,7.70
2017-06-14T07:29:30.361Z,8.10
2017-06-14T07:31:58.646Z,7.80
2017-06-14T07:34:27.023Z,6.70
2017-06-14T07:36:55.278Z,7.57
2017-06-14T07:39:23.545Z,7.50
2017-06-14T07:41:51.838Z,7.93
2017-06-14T07:44:20.132Z,8.53
2017-06-14T07:46:48.466Z,7.07
2017-06-14T07:49:16.730Z,6.97
2017-06-14T07:51:45.064Z,6.77
2017-06-14T07:54:13.433Z,7.30
2017-06-14T07:56:41.724Z,7.13
2017-06-14T07:59:09.992Z,6.40
2017-06-14T08:01:38.385Z,6.60
2017-06-14T08:04:06.641Z,6.53
2017-06-14T08:06:34.931Z,5.70
2017-06-14T08:09:03.298Z,5.70
2017-06-14T08:11:31.588Z,6.10
2017-06-14T08:13:59.968Z,6.10
2017-06-14T08:16:28.242Z,7.30
2017-06-14T08:18:56.623Z,5.60
2017-06-14T08:21:25.004Z,6.27
2017-06-14T08:23:53.369Z,6.60
2017-06-14T08:26:21.688Z,5.90
2017-06-14T08:28:50.713Z,6.30
2017-06-14T08:31:19.024Z,5.90
2017-06-14T08:33:47.400Z,6.60
2017-06-14T08:36:15.670Z,6.97
2017-06-14T08:38:44.033Z,6.50
2017-06-14T08:41:12.329Z,5.87
2017-06-14T08:43:40.606Z,5.77
2017-06-14T08:46:08.981Z,6.00
2017-06-14T08:48:37.259Z,5.60
2017-06-14T08:51:05.641Z,5.90
2017-06-14T08:53:33.946Z,6.17
2017-06-14T08:56:03.016Z,5.63
2017-06-14T08:58:31.399Z,6.70
2017-06-14T09:00:59.752Z,6.50
2017-06-14T09:03:28.174Z,5.47
2017-06-14T09:05:56.437Z,5.83
2017-06-14T09:08:24.714Z,5.97
2017-06-14T09:10:53.101Z,6.33
2017-06-14T09:13:21.357Z,4.93
2017-06-14T09:15:49.633Z,5.10
2017-06-14T09:18:17.905Z,5.67
2017-06-14T09:20:46.177Z,5.50
2017-06-14T09:23:14.476Z,5.80
2017-06-14T09:25:42.752Z,6.67
2017-06-14T09:28:11.030Z,5.60
2017-06-14T09:30:39.304Z,6.10
2017-06-14T09:33:07.591Z,6.00
2017-06-14T09:35:35.960Z,5.40
2017-06-14T09:38:04.219Z,5.27
2017-06-14T09:40:32.512Z,4.83
2017-06-14T09:43:00.778Z,6.70
2017-06-14T09:45:29.233Z,5.67
2017-06-14T09:47:57.548Z,5.50
2017-06-14T09:50:25.842Z,5.67
2017-06-14T09:52:54.158Z,5.37
2017-06-14T09:55:22.656Z,5.10
2017-06-14T09:57:50.931Z,6.23
2017-06-14T10:00:19.195Z,5.30
2017-06-14T10:02:47.561Z,5.17
2017-06-14T10:05:15.819Z,5.63
2017-06-14T10:07:44.216Z,4.43
2017-06-14T10:10:12.486Z,5.80
2017-06-14T10:12:40.806Z,5.37
2017-06-14T10:15:09.058Z,4.53
2017-06-14T10:17:37.380Z,5.50
2017-06-14T10:20:05.715Z,4.40
2017-06-14T10:22:34.105Z,4.23
2017-06-14T10:25:02.382Z,4.33
2017-06-14T10:27:30.658Z,4.23
2017-06-14T10:29:58.946Z,4.27
2017-06-14T10:32:27.200Z,5.20
2017-06-14T10:34:55.591Z,4.33
2017-06-14T10:37:23.862Z,4.23
2017-06-14T10:39:52.134Z,4.80
2017-06-14T10:42:20.513Z,4.20
2017-06-14T10:44:48.819Z,4.70
2017-06-14T10:47:17.995Z,4.30
2017-06-14T10:49:46.264Z,4.30
2017-06-14T10:52:14.516Z,4.70
2017-06-14T10:54:42.825Z,5.30
2017-06-14T10:57:11.121Z,4.97
2017-06-14T10:59:39.376Z,4.30
2017-06-14T11:02:07.749Z,4.50
2017-06-14T11:04:36.031Z,4.50
2017-06-14T11:07:04.289Z,4.70
2017-06-14T11:09:32.576Z,4.63
2017-06-14T11:12:00.844Z,5.13
2017-06-14T11:14:29.278Z,4.77
2017-06-14T11:16:58.310Z,4.27
2017-06-14T11:19:26.586Z,4.77
2017-06-14T11:21:54.870Z,4.83
2017-06-14T11:24:23.174Z,4.50
2017-06-14T11:26:51.506Z,3.87
2017-06-14T11:29:19.821Z,5.17
2017-06-14T11:31:48.073Z,4.57
2017-06-14T11:34:16.444Z,4.70
2017-06-14T11:36:44.761Z,4.13
2017-06-14T11:39:13.132Z,5.00
2017-06-14T11:41:41.393Z,4.70
2017-06-14T11:44:09.789Z,4.90
2017-06-14T11:46:38.086Z,4.47
2017-06-14T11:49:06.446Z,5.07
2017-06-14T11:51:34.776Z,4.90
2017-06-14T11:54:03.125Z,4.80
2017-06-14T11:56:32.180Z,4.40
2017-06-14T11:59:00.502Z,4.90
2017-06-14T12:01:28.792Z,5.40
2017-06-14T12:03:58.425Z,5.40
2017-06-14T12:06:26.727Z,4.53
2017-06-14T12:08:55.026Z,4.73
2017-06-14T12:11:23.318Z,4.70
2017-06-14T12:13:52.391Z,4.77
2017-06-14T12:16:20.777Z,4.50
2017-06-14T12:18:49.147Z,4.30
2017-06-14T12:21:17.525Z,4.87
2017-06-14T12:23:45.796Z,4.00
2017-06-14T12:26:14.185Z,3.57
2017-06-14T12:28:42.452Z,4.17
2017-06-14T12:31:10.747Z,3.73
2017-06-14T12:33:39.024Z,3.43
2017-06-14T12:36:07.345Z,3.40
2017-06-14T12:38:35.669Z,3.57
2017-06-14T12:41:03.932Z,3.50
2017-06-14T12:43:32.253Z,3.67
2017-06-14T12:46:01.325Z,3.53
2017-06-14T12:48:29.579Z,3.07
2017-06-14T12:50:57.975Z,3.20
2017-06-14T12:53:26.255Z,3.40
2017-06-14T12:55:54.522Z,3.23
2017-06-14T12:58:22.908Z,3.43
2017-06-14T13:00:51.176Z,3.80
2017-06-14T13:03:19.495Z,3.90
2017-06-14T13:05:48.556Z,3.90
2017-06-14T13:08:16.828Z,3.60
2017-06-14T13:10:45.207Z,3.13
2017-06-14T13:13:13.465Z,3.80
2017-06-14T13:15:41.836Z,4.00
2017-06-14T13:18:10.156Z,4.07
2017-06-14T13:20:38.417Z,3.10
2017-06-14T13:23:06.693Z,3.83
2017-06-14T13:25:34.952Z,3.43
2017-06-14T13:28:03.370Z,3.50
2017-06-14T13:30:31.645Z,3.50
2017-06-14T13:32:59.913Z,3.53
2017-06-14T13:35:28.292Z,3.70
2017-06-14T13:37:56.572Z,3.53
2017-06-14T13:40:24.943Z,3.63
2017-06-14T13:42:53.230Z,3.70
2017-06-14T13:45:21.516Z,3.43
2017-06-14T13:47:49.812Z,4.13
2017-06-14T13:50:18.846Z,4.67
2017-06-14T13:52:47.149Z,4.50
2017-06-14T13:55:15.438Z,3.90
2017-06-14T13:57:43.714Z,4.00
2017-06-14T14:00:11.997Z,3.93
2017-06-14T14:02:40.260Z,4.13
2017-06-14T14:05:08.636Z,3.50
2017-06-14T14:07:37.031Z,3.80
2017-06-14T14:10:05.291Z,3.47
2017-06-14T14:12:33.565Z,4.43
2017-06-14T14:15:01.826Z,3.17
2017-06-14T14:17:30.125Z,3.93
2017-06-14T14:19:58.401Z,3.70
2017-06-14T14:22:26.800Z,3.87
2017-06-14T14:24:55.097Z,4.20
2017-06-14T14:27:23.360Z,3.93
2017-06-14T14:29:52.532Z,3.57
2017-06-14T14:32:20.813Z,4.30
2017-06-14T14:34:49.090Z,3.90
2017-06-14T14:37:17.364Z,3.50
2017-06-14T14:39:45.626Z,3.77
2017-06-14T14:42:13.913Z,3.53
2017-06-14T14:44:42.213Z,4.30
2017-06-14T14:47:10.549Z,4.00
2017-06-14T14:49:38.905Z,4.40
2017-06-14T14:52:07.165Z,3.87
2017-06-14T14:54:36.216Z,3.47
2017-06-14T14:57:04.524Z,3.70
2017-06-14T14:59:32.799Z,3.90
2017-06-14T15:02:01.175Z,4.10
2017-06-14T15:04:29.460Z,3.33
2017-06-14T15:06:57.830Z,4.10
2017-06-14T15:09:26.203Z,3.80
2017-06-14T15:11:54.582Z,3.83
2017-06-14T15:14:22.882Z,3.93
2017-06-14T15:16:51.262Z,3.87
2017-06-14T15:19:20.350Z,3.70
2017-06-14T15:21:48.635Z,3.97
2017-06-14T15:24:16.994Z,3.87
2017-06-14T15:26:45.369Z,4.93
2017-06-14T15:29:14.640Z,3.80
2017-06-14T15:31:43.061Z,3.43
2017-06-14T15:34:11.385Z,3.77
2017-06-14T15:36:39.664Z,3.70
2017-06-14T15:39:07.940Z,4.10
2017-06-14T15:41:36.310Z,3.77
2017-06-14T15:44:04.596Z,4.07
2017-06-14T15:46:32.899Z,4.03
2017-06-14T15:49:01.953Z,4.20
2017-06-14T15:51:30.840Z,3.60
2017-06-14T15:53:59.125Z,4.00
2017-06-14T15:56:27.497Z,3.60
2017-06-14T15:58:55.800Z,3.27
2017-06-14T16:01:24.132Z,4.03
2017-06-14T16:03:52.489Z,3.93
2017-06-14T16:06:20.816Z,3.47
2017-06-14T16:08:49.867Z,3.53
2017-06-14T16:11:18.169Z,4.20
2017-06-14T16:13:46.536Z,3.73
2017-06-14T16:16:14.809Z,3.90
2017-06-14T16:18:43.198Z,3.90
2017-06-14T16:21:11.474Z,3.70
2017-06-14T16:23:39.856Z,4.17
2017-06-14T16:26:08.133Z,3.97
2017-06-14T16:28:36.448Z,4.03
2017-06-14T16:31:06.044Z,3.67
2017-06-14T16:33:34.402Z,3.13
2017-06-14T16:36:02.665Z,3.50
2017-06-14T16:38:30.984Z,3.83
2017-06-14T16:41:00.047Z,3.80
2017-06-14T16:43:28.344Z,3.27
2017-06-14T16:45:57.372Z,3.40
2017-06-14T16:48:25.717Z,3.53
2017-06-14T16:50:53.974Z,3.70
2017-06-14T16:53:22.252Z,3.70
2017-06-14T16:55:50.556Z,3.97
2017-06-14T16:58:18.825Z,3.80
2017-06-14T17:00:47.902Z,4.20
2017-06-14T17:03:16.161Z,3.70
2017-06-14T17:05:44.437Z,4.33
2017-06-14T17:08:12.714Z,3.73
2017-06-14T17:10:41.021Z,3.57
2017-06-14T17:13:09.283Z,4.00
2017-06-14T17:15:37.664Z,4.27
2017-06-14T17:18:05.928Z,3.70
2017-06-14T17:20:34.220Z,3.87
2017-06-14T17:23:03.534Z,3.87
2017-06-14T17:25:31.815Z,4.47
2017-06-14T17:28:00.176Z,3.90
2017-06-14T17:30:28.449Z,3.90
2017-06-14T17:32:56.772Z,3.50
2017-06-14T17:35:25.110Z,3.60
2017-06-14T17:37:53.396Z,3.50
2017-06-14T17:40:21.865Z,3.43
2017-06-14T17:42:50.145Z,4.20
2017-06-14T17:45:18.525Z,3.30
2017-06-14T17:47:47.070Z,3.53
2017-06-14T17:50:15.336Z,3.17
2017-06-14T17:52:43.671Z,3.80
2017-06-14T17:55:11.966Z,3.50
2017-06-14T17:57:41.032Z,3.73
2017-06-14T18:00:09.416Z,2.73
2017-06-14T18:02:37.697Z,3.60
2017-06-14T18:05:05.986Z,3.40
2017-06-14T18:07:34.343Z,3.70
2017-06-14T18:10:02.721Z,3.20
2017-06-14T18:12:31.010Z,4.13
2017-06-14T18:14:59.392Z,21.23
2017-06-14T18:17:27.661Z,3.43
2017-06-14T18:19:55.933Z,13.10
2017-06-14T18:22:24.325Z,3.90
2017-06-14T18:24:52.712Z,3.70
2017-06-14T18:27:21.025Z,4.20
2017-06-14T18:29:49.284Z,3.37
2017-06-14T18:32:18.324Z,3.23
2017-06-14T18:34:46.627Z,3.03
2017-06-14T18:37:14.904Z,3.30
2017-06-14T18:39:43.173Z,3.47
2017-06-14T18:42:11.553Z,2.87
2017-06-14T18:44:39.826Z,6.30
2017-06-14T18:47:08.100Z,7.00
2017-06-14T18:49:36.484Z,6.40
2017-06-14T18:52:04.768Z,2.70
2017-06-14T18:54:33.062Z,2.60
2017-06-14T18:57:02.094Z,1.90
2017-06-14T18:59:30.412Z,2.30
2017-06-14T19:01:58.685Z,2.30
2017-06-14T19:04:26.948Z,2.60
2017-06-14T19:06:55.234Z,2.20
2017-06-14T19:09:23.510Z,2.13
2017-06-14T19:11:51.901Z,2.23
2017-06-14T19:14:20.176Z,2.10
2017-06-14T19:16:48.554Z,2.80
2017-06-14T19:19:16.845Z,2.50
2017-06-14T19:21:45.109Z,2.63
2017-06-14T19:24:13.388Z,2.30
2017-06-14T19:26:47.521Z,2.40
2017-06-14T19:29:15.801Z,2.73
2017-06-14T19:31:44.870Z,2.40
2017-06-14T19:34:13.253Z,2.53
2017-06-14T19:36:47.572Z,2.20
2017-06-14T19:39:15.961Z,2.57
2017-06-14T19:41:44.237Z,2.07
2017-06-14T19:44:12.608Z,2.60
2017-06-14T19:46:40.883Z,2.57
2017-06-14T19:49:09.165Z,14.37
2017-06-14T19:51:37.456Z,8.10
2017-06-14T19:54:05.712Z,7.90
2017-06-14T19:56:34.009Z,7.30
2017-06-14T19:59:02.379Z,4.40
2017-06-14T20:01:30.773Z,3.53
2017-06-14T20:03:59.182Z,5.50
2017-06-14T20:06:28.329Z,4.70
2017-06-14T20:08:56.598Z,9.13
2017-06-14T20:11:24.880Z,4.47
2017-06-14T20:13:53.172Z,3.30
2017-06-14T20:16:21.557Z,4.77
2017-06-14T20:18:49.846Z,3.27
2017-06-14T20:21:18.624Z,24.60
2017-06-14T20:23:46.912Z,13.30
2017-06-14T20:26:15.224Z,7.07
2017-06-14T20:28:43.513Z,4.40
2017-06-14T20:31:11.812Z,3.70
2017-06-14T20:33:40.863Z,4.20
2017-06-14T20:36:09.557Z,3.73
2017-06-14T20:38:37.826Z,4.53
2017-06-14T20:41:06.135Z,3.70
2017-06-14T20:43:34.597Z,3.13
2017-06-14T20:46:02.874Z,3.87
2017-06-14T20:48:31.250Z,3.63
2017-06-14T20:50:59.526Z,4.40
2017-06-14T20:53:27.918Z,4.27
2017-06-14T20:55:56.192Z,3.30
2017-06-14T20:58:24.477Z,4.03
2017-06-14T21:00:52.754Z,4.60
2017-06-14T21:03:21.020Z,4.77
2017-06-14T21:05:49.515Z,4.83
2017-06-14T21:08:17.785Z,3.97
2017-06-14T21:10:46.117Z,3.63
2017-06-14T21:13:14.490Z,4.53
2017-06-14T21:15:42.883Z,3.67
2017-06-14T21:18:11.152Z,4.73
2017-06-14T21:20:39.441Z,3.97
2017-06-14T21:23:08.522Z,4.63
2017-06-14T21:25:36.810Z,4.20
2017-06-14T21:28:05.132Z,4.77
2017-06-14T21:30:33.462Z,4.27
2017-06-14T21:33:01.841Z,13.60
2017-06-14T21:35:30.125Z,19.70
2017-06-14T21:37:59.204Z,8.87
2017-06-14T21:40:27.600Z,6.50
2017-06-14T21:42:55.878Z,5.20
2017-06-14T21:45:24.195Z,5.10
2017-06-14T21:47:52.505Z,4.63
2017-06-14T21:50:20.798Z,5.40
2017-06-14T21:52:49.093Z,4.40
2017-06-14T21:55:17.385Z,4.63
2017-06-14T21:57:45.746Z,4.17
2017-06-14T22:00:14.119Z,4.27
2017-06-14T22:02:42.423Z,4.43
2017-06-14T22:05:11.510Z,3.87
2017-06-14T22:07:40.582Z,3.80
2017-06-14T22:10:08.974Z,3.60
2017-06-14T22:12:37.338Z,3.73
2017-06-14T22:15:05.721Z,4.10
2017-06-14T22:17:33.994Z,3.70
2017-06-14T22:20:02.298Z,4.37
2017-06-14T22:22:30.560Z,3.80
2017-06-14T22:24:59.613Z,4.73
2017-06-14T22:27:27.899Z,4.23
2017-06-14T22:29:56.176Z,4.33
2017-06-14T22:32:24.475Z,3.77
2017-06-14T22:34:52.757Z,3.77
2017-06-14T22:37:21.119Z,3.83
2017-06-14T22:39:49.390Z,11.87
2017-06-14T22:42:18.428Z,12.43
2017-06-14T22:44:46.723Z,5.83
2017-06-14T22:47:15.000Z,8.67
2017-06-14T22:49:43.399Z,6.60
2017-06-14T22:52:11.669Z,5.30
2017-06-14T22:54:39.969Z,5.27
2017-06-14T22:57:08.241Z,4.80
2017-06-14T22:59:36.512Z,4.80
2017-06-14T23:02:04.888Z,4.43
2017-06-14T23:04:33.176Z,4.60
2017-06-14T23:07:01.449Z,4.20
2017-06-14T23:09:29.807Z,5.40
2017-06-14T23:11:58.192Z,4.90
2017-06-14T23:14:26.462Z,5.50
2017-06-14T23:16:54.747Z,4.20
2017-06-14T23:19:23.511Z,4.53
2017-06-14T23:21:51.811Z,4.37
2017-06-14T23:24:20.199Z,4.80
2017-06-14T23:26:48.497Z,4.33
2017-06-14T23:29:17.670Z,4.80
2017-06-14T23:31:45.992Z,4.10
2017-06-14T23:34:14.260Z,4.00
2017-06-14T23:36:43.301Z,4.17
2017-06-14T23:39:11.562Z,3.70
2017-06-14T23:41:39.967Z,4.23
2017-06-14T23:44:08.233Z,4.33
2017-06-14T23:46:36.628Z,4.27
2017-06-14T23:49:04.921Z,4.47
2017-06-14T23:51:33.186Z,4.43
2017-06-14T23:54:01.555Z,4.40
2017-06-14T23:56:29.841Z,4.37
2017-06-14T23:58:58.906Z,3.93
